createdAt,value
2023-05-05T00:01:11.614Z,81.48
2023-05-05T00:03:44.628Z,81.74
2023-05-05T00:06:18.040Z,82.06
2023-05-05T00:08:51.017Z,81.96
2023-05-05T00:11:23.994Z,82.91
2023-05-05T00:13:58.306Z,82.71
2023-05-05T00:16:31.341Z,83.41
2023-05-05T00:19:04.401Z,83.71
2023-05-05T00:21:37.344Z,83.77
2023-05-05T00:24:10.743Z,84.16
2023-05-05T00:26:43.684Z,83.48
2023-05-05T00:29:18.030Z,84.19
2023-05-05T00:31:52.708Z,83.94
2023-05-05T00:34:25.694Z,84.80
2023-05-05T00:36:58.629Z,84.63
2023-05-05T00:39:33.230Z,84.91
2023-05-05T00:42:06.400Z,84.74
2023-05-05T00:44:42.906Z,84.87
2023-05-05T00:47:16.790Z,85.31
2023-05-05T00:49:49.740Z,85.25
2023-05-05T00:52:22.776Z,85.04
2023-05-05T00:54:56.137Z,85.53
2023-05-05T00:57:29.210Z,85.55
2023-05-05T01:00:05.970Z,85.24
2023-05-05T01:02:41.188Z,86.09
2023-05-05T01:05:16.004Z,86.03
2023-05-05T01:08:04.678Z,85.87
2023-05-05T01:10:44.285Z,85.85
2023-05-05T01:13:33.315Z,86.12
2023-05-05T01:16:16.142Z,86.31
2023-05-05T01:18:55.611Z,85.90
2023-05-05T01:21:34.837Z,86.22
2023-05-05T01:24:40.450Z,86.26
2023-05-05T01:27:35.204Z,86.01
2023-05-05T01:30:23.686Z,85.54
2023-05-05T01:33:03.892Z,85.56
2023-05-05T01:35:42.729Z,85.66
2023-05-05T01:38:18.689Z,86.07
2023-05-05T01:41:00.965Z,86.53
2023-05-05T01:43:36.899Z,86.69
2023-05-05T01:46:10.707Z,86.72
2023-05-05T01:48:46.954Z,85.72
2023-05-05T01:51:22.338Z,86.05
2023-05-05T01:54:00.222Z,86.07
2023-05-05T01:56:34.231Z,86.42
2023-05-05T01:59:08.002Z,86.56
2023-05-05T02:01:44.699Z,86.11
2023-05-05T02:04:22.824Z,86.30
2023-05-05T02:06:57.437Z,86.87
2023-05-05T02:09:30.884Z,87.19
2023-05-05T02:12:07.641Z,86.83
2023-05-05T02:14:41.870Z,86.75
2023-05-05T02:17:16.384Z,86.66
2023-05-05T02:19:53.381Z,85.97
2023-05-05T02:22:26.475Z,85.72
2023-05-05T02:24:59.544Z,85.92
2023-05-05T02:27:36.092Z,85.87
2023-05-05T02:30:12.669Z,86.78
2023-05-05T02:33:01.476Z,87.98
2023-05-05T02:35:39.496Z,88.44
2023-05-05T02:38:17.347Z,88.73
2023-05-05T02:40:52.326Z,88.20
2023-05-05T02:43:26.907Z,88.30
2023-05-05T02:45:59.887Z,88.94
2023-05-05T02:48:32.854Z,89.03
2023-05-05T02:51:07.744Z,88.93
2023-05-05T02:53:41.121Z,89.35
2023-05-05T02:56:26.772Z,89.50
2023-05-05T02:59:10.069Z,89.14
2023-05-05T03:02:00.655Z,89.90
2023-05-05T03:04:40.598Z,90.34
2023-05-05T03:07:23.160Z,89.48
2023-05-05T03:10:06.032Z,90.19
2023-05-05T03:12:46.677Z,90.53
2023-05-05T03:15:21.196Z,90.63
2023-05-05T03:17:55.293Z,89.43
2023-05-05T03:20:29.873Z,90.56
2023-05-05T03:23:04.197Z,90.27
2023-05-05T03:25:45.145Z,91.02
2023-05-05T03:28:19.154Z,90.50
2023-05-05T03:30:52.197Z,90.90
2023-05-05T03:33:25.166Z,91.48
2023-05-05T03:35:58.342Z,90.89
2023-05-05T03:38:32.747Z,92.05
2023-05-05T03:41:05.737Z,91.89
2023-05-05T03:43:39.359Z,91.56
2023-05-05T03:46:12.456Z,91.84
2023-05-05T03:48:45.478Z,91.20
2023-05-05T03:51:18.756Z,91.16
2023-05-05T03:53:53.042Z,91.33
2023-05-05T03:56:25.959Z,92.40
2023-05-05T03:58:58.894Z,92.47
2023-05-05T04:01:31.893Z,91.69
2023-05-05T04:04:05.183Z,91.61
2023-05-05T04:06:38.114Z,92.00
2023-05-05T04:09:13.753Z,91.75
2023-05-05T04:11:46.721Z,92.02
2023-05-05T04:14:19.650Z,92.16
2023-05-05T04:16:53.654Z,91.46
2023-05-05T04:19:26.576Z,91.64
2023-05-05T04:21:59.543Z,91.46
2023-05-05T04:24:33.868Z,91.28
2023-05-05T04:27:07.069Z,91.98
2023-05-05T04:29:40.387Z,92.81
2023-05-05T04:32:13.331Z,92.98
2023-05-05T04:34:46.295Z,92.92
2023-05-05T04:37:19.380Z,92.36
2023-05-05T04:39:53.800Z,92.46
2023-05-05T04:42:26.837Z,91.95
2023-05-05T04:44:59.779Z,91.37
2023-05-05T04:47:32.839Z,91.55
2023-05-05T04:50:07.344Z,91.83
2023-05-05T04:52:40.915Z,91.96
2023-05-05T04:55:15.368Z,91.54
2023-05-05T04:57:48.330Z,91.61
2023-05-05T05:00:21.659Z,91.21
2023-05-05T05:02:54.635Z,90.12
2023-05-05T05:05:27.645Z,90.39
2023-05-05T05:08:00.626Z,90.04
2023-05-05T05:10:34.942Z,90.48
2023-05-05T05:13:07.911Z,90.52
2023-05-05T05:15:41.060Z,89.83
2023-05-05T05:18:14.008Z,87.81
2023-05-05T05:20:46.940Z,85.28
2023-05-05T05:23:19.880Z,83.37
2023-05-05T05:25:54.148Z,81.38
2023-05-05T05:28:27.138Z,79.38
2023-05-05T05:31:00.178Z,79.76
2023-05-05T05:33:33.127Z,78.78
2023-05-05T05:36:07.006Z,77.31
2023-05-05T05:38:39.964Z,74.87
2023-05-05T05:41:14.338Z,72.84
2023-05-05T05:43:47.289Z,70.88
2023-05-05T05:46:20.385Z,68.92
2023-05-05T05:48:54.052Z,66.77
2023-05-05T05:51:27.847Z,64.73
2023-05-05T05:54:00.791Z,65.33
2023-05-05T05:56:35.304Z,67.37
2023-05-05T05:59:10.072Z,68.86
2023-05-05T06:01:43.043Z,69.91
2023-05-05T06:04:15.991Z,69.19
2023-05-05T06:06:48.925Z,67.63
2023-05-05T06:09:21.954Z,67.37
2023-05-05T06:11:56.253Z,67.24
2023-05-05T06:14:29.195Z,64.77
2023-05-05T06:17:02.134Z,62.08
2023-05-05T06:19:36.893Z,61.33
2023-05-05T06:22:10.142Z,58.87
2023-05-05T06:24:43.092Z,56.97
2023-05-05T06:27:17.377Z,55.77
2023-05-05T06:29:50.376Z,54.28
2023-05-05T06:32:23.365Z,53.15
2023-05-05T06:34:56.392Z,51.69
2023-05-05T06:37:29.349Z,50.64
2023-05-05T06:40:02.294Z,50.30
2023-05-05T06:42:36.613Z,49.39
2023-05-05T06:45:10.804Z,48.91
2023-05-05T06:47:44.244Z,49.38
2023-05-05T06:50:17.418Z,49.77
2023-05-05T06:52:50.387Z,49.60
2023-05-05T06:55:24.343Z,49.82
2023-05-05T06:57:58.654Z,48.86
2023-05-05T07:00:31.701Z,48.18
2023-05-05T07:03:05.174Z,48.00
2023-05-05T07:05:38.202Z,47.03
2023-05-05T07:08:11.332Z,46.62
2023-05-05T07:10:44.504Z,45.87
2023-05-05T07:13:18.837Z,45.68
2023-05-05T07:15:51.830Z,45.89
2023-05-05T07:18:24.742Z,45.32
2023-05-05T07:20:57.822Z,45.78
2023-05-05T07:23:30.842Z,45.93
2023-05-05T07:26:03.967Z,45.34
2023-05-05T07:28:38.337Z,44.55
2023-05-05T07:31:11.430Z,44.91
2023-05-05T07:33:44.402Z,45.69
2023-05-05T07:36:18.783Z,47.46
2023-05-05T07:38:51.869Z,47.66
2023-05-05T07:41:24.836Z,49.25
2023-05-05T07:43:59.867Z,50.03
2023-05-05T07:46:32.919Z,51.48
2023-05-05T07:49:06.338Z,52.12
2023-05-05T07:51:39.291Z,51.35
2023-05-05T07:54:12.853Z,51.36
2023-05-05T07:56:46.102Z,52.54
2023-05-05T07:59:20.390Z,53.06
2023-05-05T08:01:54.856Z,51.80
2023-05-05T08:04:28.062Z,51.33
2023-05-05T08:07:01.016Z,51.11
2023-05-05T08:09:33.986Z,50.74
2023-05-05T08:12:07.242Z,49.34
2023-05-05T08:14:42.391Z,49.58
2023-05-05T08:17:16.425Z,49.31
2023-05-05T08:19:52.957Z,49.18
2023-05-05T08:22:26.380Z,47.46
2023-05-05T08:24:59.309Z,47.58
2023-05-05T08:27:35.183Z,46.93
2023-05-05T08:30:11.775Z,47.60
2023-05-05T08:32:44.810Z,46.82
2023-05-05T08:35:17.839Z,48.11
2023-05-05T08:37:52.372Z,48.67
2023-05-05T08:40:33.805Z,47.27
2023-05-05T08:43:07.164Z,48.87
2023-05-05T08:45:42.820Z,48.32
2023-05-05T08:48:20.619Z,48.94
2023-05-05T08:51:00.836Z,47.73
2023-05-05T08:53:50.032Z,48.20
2023-05-05T08:56:23.305Z,48.61
2023-05-05T08:58:58.099Z,48.92
2023-05-05T09:01:34.213Z,49.98
2023-05-05T09:04:09.252Z,50.66
2023-05-05T09:06:42.276Z,50.79
2023-05-05T09:09:16.081Z,50.91
2023-05-05T09:11:49.199Z,51.87
2023-05-05T09:14:22.138Z,52.84
2023-05-05T09:16:56.465Z,53.41
2023-05-05T09:19:29.450Z,53.90
2023-05-05T09:22:02.427Z,55.13
2023-05-05T09:24:35.390Z,55.57
2023-05-05T09:27:23.149Z,55.03
2023-05-05T09:29:56.549Z,55.68
2023-05-05T09:32:30.953Z,55.71
2023-05-05T09:35:04.010Z,55.96
2023-05-05T09:37:37.538Z,61.09
2023-05-05T09:40:13.227Z,63.49
2023-05-05T09:42:47.278Z,65.57
2023-05-05T09:45:28.095Z,67.75
2023-05-05T09:48:02.454Z,69.50
2023-05-05T09:50:44.989Z,72.40
2023-05-05T09:53:18.104Z,73.76
2023-05-05T09:55:55.635Z,76.91
2023-05-05T09:58:30.616Z,80.92
2023-05-05T10:01:03.628Z,80.99
2023-05-05T10:03:52.478Z,81.84
2023-05-05T10:06:41.966Z,84.14
2023-05-05T10:09:15.235Z,85.14
2023-05-05T10:11:49.170Z,85.87
2023-05-05T10:14:22.220Z,88.17
2023-05-05T10:16:56.967Z,88.65
2023-05-05T10:19:35.982Z,88.70
2023-05-05T10:22:11.332Z,91.54
2023-05-05T10:24:52.232Z,92.83
2023-05-05T10:27:29.801Z,94.54
2023-05-05T10:30:06.466Z,96.93
2023-05-05T10:32:59.393Z,96.23
2023-05-05T10:35:43.528Z,96.03
2023-05-05T10:38:17.558Z,94.99
2023-05-05T10:40:51.332Z,94.83
2023-05-05T10:43:25.578Z,92.74
2023-05-05T10:45:59.194Z,90.13
2023-05-05T10:48:39.041Z,89.28
2023-05-05T10:51:39.519Z,90.61
2023-05-05T10:54:22.394Z,86.60
2023-05-05T10:56:55.995Z,81.27
2023-05-05T10:59:43.301Z,81.50
2023-05-05T11:02:27.806Z,79.52
2023-05-05T11:05:09.535Z,78.98
2023-05-05T11:07:44.851Z,74.09
2023-05-05T11:10:20.544Z,71.89
2023-05-05T11:13:20.660Z,72.84
2023-05-05T11:15:54.953Z,74.13
2023-05-05T11:18:35.769Z,71.73
2023-05-05T11:21:17.657Z,72.46
2023-05-05T11:23:53.369Z,70.04
2023-05-05T11:26:52.260Z,67.40
2023-05-05T11:29:25.679Z,65.42
2023-05-05T11:32:12.631Z,68.63
2023-05-05T11:34:54.409Z,67.55
2023-05-05T11:37:28.885Z,62.96
2023-05-05T11:40:16.539Z,60.20
2023-05-05T11:42:49.542Z,61.36
2023-05-05T11:45:24.786Z,63.00
2023-05-05T11:48:27.893Z,64.33
2023-05-05T11:51:05.339Z,62.52
2023-05-05T11:53:38.694Z,63.21
2023-05-05T11:56:18.819Z,60.23
2023-05-05T11:59:09.513Z,59.47
2023-05-05T12:01:42.813Z,57.88
2023-05-05T12:04:17.024Z,60.81
2023-05-05T12:06:50.201Z,60.39
2023-05-05T12:09:24.264Z,59.33
2023-05-05T12:12:00.494Z,56.89
2023-05-05T12:14:34.384Z,57.31
2023-05-05T12:17:09.330Z,57.92
2023-05-05T12:19:53.924Z,56.17
2023-05-05T12:22:27.966Z,57.00
2023-05-05T12:25:04.622Z,56.68
2023-05-05T12:27:39.172Z,55.27
2023-05-05T12:30:15.527Z,52.64
2023-05-05T12:32:48.559Z,53.06
2023-05-05T12:35:22.517Z,53.79
2023-05-05T12:37:55.778Z,53.29
2023-05-05T12:40:48.732Z,52.25
2023-05-05T12:43:28.875Z,53.45
2023-05-05T12:46:07.324Z,51.18
2023-05-05T12:48:44.458Z,51.83
2023-05-05T12:51:23.126Z,52.82
2023-05-05T12:54:07.182Z,52.17
2023-05-05T12:56:42.006Z,51.99
2023-05-05T12:59:31.002Z,51.54
2023-05-05T13:02:04.517Z,50.55
2023-05-05T13:04:50.373Z,50.88
2023-05-05T13:07:23.572Z,50.33
2023-05-05T13:10:09.062Z,50.82
2023-05-05T13:12:42.202Z,50.92
2023-05-05T13:15:16.734Z,51.57
2023-05-05T13:17:49.747Z,50.68
2023-05-05T13:20:22.825Z,48.96
2023-05-05T13:22:55.772Z,50.23
2023-05-05T13:25:28.718Z,50.42
2023-05-05T13:28:01.739Z,50.86
2023-05-05T13:30:36.002Z,50.18
2023-05-05T13:33:09.029Z,49.95
2023-05-05T13:35:41.990Z,49.02
2023-05-05T13:38:14.957Z,49.94
2023-05-05T13:40:47.889Z,50.44
2023-05-05T13:43:21.103Z,47.59
2023-05-05T13:46:05.619Z,48.20
2023-05-05T13:48:45.863Z,47.65
2023-05-05T13:51:18.789Z,48.70
2023-05-05T13:53:52.681Z,48.97
2023-05-05T13:56:27.619Z,49.24
2023-05-05T13:59:00.885Z,49.61
2023-05-05T14:01:35.298Z,46.94
2023-05-05T14:04:08.749Z,47.95
2023-05-05T14:06:41.807Z,48.18
2023-05-05T14:09:14.807Z,46.72
2023-05-05T14:11:47.806Z,47.05
2023-05-05T14:14:20.844Z,48.62
2023-05-05T14:16:55.299Z,48.54
2023-05-05T14:19:28.481Z,49.32
2023-05-05T14:22:01.429Z,48.54
2023-05-05T14:24:34.449Z,48.95
2023-05-05T14:27:07.430Z,48.33
2023-05-05T14:29:40.501Z,49.19
2023-05-05T14:32:14.909Z,50.59
2023-05-05T14:34:50.333Z,50.64
2023-05-05T14:37:23.618Z,51.37
2023-05-05T14:39:56.565Z,50.95
2023-05-05T14:42:29.500Z,51.33
2023-05-05T14:45:03.626Z,51.61
2023-05-05T14:47:37.963Z,51.09
2023-05-05T14:50:11.860Z,50.47
2023-05-05T14:52:44.795Z,50.04
2023-05-05T14:55:17.953Z,50.59
2023-05-05T14:57:51.429Z,51.58
2023-05-05T15:00:26.460Z,52.67
2023-05-05T15:03:00.879Z,52.80
2023-05-05T15:05:33.873Z,53.46
2023-05-05T15:08:07.806Z,52.86
2023-05-05T15:10:40.998Z,52.51
2023-05-05T15:13:14.586Z,52.51
2023-05-05T15:15:48.416Z,53.00
2023-05-05T15:18:22.750Z,53.48
2023-05-05T15:20:55.683Z,52.76
2023-05-05T15:23:28.620Z,52.87
2023-05-05T15:26:01.769Z,52.13
2023-05-05T15:28:34.782Z,52.72
2023-05-05T15:31:07.845Z,53.39
2023-05-05T15:33:44.570Z,52.78
2023-05-05T15:36:22.358Z,53.54
2023-05-05T15:38:56.677Z,54.43
2023-05-05T15:41:30.404Z,51.95
2023-05-05T15:44:04.821Z,51.65
2023-05-05T15:46:37.937Z,52.30
2023-05-05T15:49:12.330Z,52.47
2023-05-05T15:51:45.415Z,52.84
2023-05-05T15:54:18.410Z,53.13
2023-05-05T15:56:51.436Z,53.17
2023-05-05T15:59:24.406Z,53.06
2023-05-05T16:01:57.391Z,52.52
2023-05-05T16:04:32.408Z,52.58
2023-05-05T16:07:05.524Z,53.20
2023-05-05T16:09:38.526Z,54.31
2023-05-05T16:12:11.698Z,55.06
2023-05-05T16:14:44.590Z,55.39
2023-05-05T16:17:17.542Z,55.89
2023-05-05T16:19:51.886Z,57.02
2023-05-05T16:22:24.828Z,60.94
2023-05-05T16:24:57.754Z,63.28
2023-05-05T16:27:30.790Z,65.61
2023-05-05T16:30:03.844Z,67.78
2023-05-05T16:32:36.945Z,71.40
2023-05-05T16:35:12.096Z,74.13
2023-05-05T16:37:45.077Z,77.09
2023-05-05T16:40:18.122Z,80.44
2023-05-05T16:42:51.117Z,81.98
2023-05-05T16:45:24.338Z,86.60
2023-05-05T16:47:57.452Z,91.08
2023-05-05T16:50:31.787Z,93.75
2023-05-05T16:53:04.921Z,96.73
2023-05-05T16:55:38.302Z,98.71
2023-05-05T16:58:11.372Z,100.00
2023-05-05T17:00:46.657Z,100.00
2023-05-05T17:03:20.565Z,100.00
2023-05-05T17:05:55.049Z,100.00
2023-05-05T17:08:28.049Z,100.00
2023-05-05T17:11:01.137Z,100.00
2023-05-05T17:13:34.094Z,100.00
2023-05-05T17:16:07.406Z,100.00
2023-05-05T17:18:40.404Z,100.00
2023-05-05T17:21:14.862Z,100.00
2023-05-05T17:23:47.825Z,100.00
2023-05-05T17:26:20.775Z,100.00
2023-05-05T17:28:53.745Z,100.00
2023-05-05T17:31:26.701Z,100.00
2023-05-05T17:33:59.688Z,100.00
2023-05-05T17:36:34.236Z,100.00
2023-05-05T17:39:07.479Z,100.00
2023-05-05T17:41:41.971Z,100.00
2023-05-05T17:44:14.984Z,100.00
2023-05-05T17:46:47.941Z,100.00
2023-05-05T17:49:21.449Z,100.00
2023-05-05T17:51:55.735Z,100.00
2023-05-05T17:54:28.729Z,100.00
2023-05-05T17:57:02.363Z,100.00
2023-05-05T17:59:35.341Z,100.00
2023-05-05T18:02:09.133Z,100.00
2023-05-05T18:04:42.428Z,100.00
2023-05-05T18:07:16.734Z,100.00
2023-05-05T18:09:49.716Z,100.00
2023-05-05T18:12:23.040Z,100.00
2023-05-05T18:14:56.022Z,100.00
2023-05-05T18:17:29.028Z,100.00
2023-05-05T18:20:02.097Z,100.00
2023-05-05T18:22:36.467Z,100.00
2023-05-05T18:25:10.600Z,100.00
2023-05-05T18:27:43.905Z,100.00
2023-05-05T18:30:17.597Z,100.00
2023-05-05T18:32:50.614Z,100.00
2023-05-05T18:35:23.608Z,100.00
2023-05-05T18:37:57.989Z,100.00
2023-05-05T18:40:31.572Z,100.00
2023-05-05T18:43:04.658Z,100.00
2023-05-05T18:45:37.720Z,100.00
2023-05-05T18:48:11.658Z,100.00
2023-05-05T18:50:45.754Z,100.00
2023-05-05T18:53:20.153Z,100.00
2023-05-05T18:55:53.151Z,100.00
2023-05-05T18:58:26.475Z,100.00
2023-05-05T19:00:59.600Z,100.00
2023-05-05T19:03:33.657Z,100.00
2023-05-05T19:06:07.442Z,100.00
2023-05-05T19:08:41.889Z,100.00
2023-05-05T19:11:15.507Z,100.00
2023-05-05T19:13:48.488Z,100.00
2023-05-05T19:16:21.535Z,100.00
2023-05-05T19:18:58.593Z,100.00
2023-05-05T19:21:31.588Z,100.00
2023-05-05T19:24:07.369Z,100.00
2023-05-05T19:26:40.507Z,100.00
2023-05-05T19:29:13.616Z,100.00
2023-05-05T19:31:46.578Z,100.00
2023-05-05T19:34:19.594Z,100.00
2023-05-05T19:36:52.556Z,100.00
2023-05-05T19:39:26.866Z,100.00
2023-05-05T19:41:59.858Z,100.00
2023-05-05T19:44:32.809Z,100.00
2023-05-05T19:47:06.066Z,100.00
2023-05-05T19:49:39.030Z,100.00
2023-05-05T19:52:12.030Z,100.00
2023-05-05T19:54:46.607Z,100.00
2023-05-05T19:57:19.867Z,100.00
2023-05-05T19:59:52.808Z,100.00
2023-05-05T20:02:27.045Z,100.00
2023-05-05T20:05:00.155Z,100.00
2023-05-05T20:07:33.137Z,100.00
2023-05-05T20:10:09.849Z,100.00
2023-05-05T20:12:47.861Z,100.00
2023-05-05T20:15:22.075Z,100.00
2023-05-05T20:17:55.262Z,100.00
2023-05-05T20:20:28.314Z,100.00
2023-05-05T20:23:01.265Z,100.00
2023-05-05T20:25:35.574Z,100.00
2023-05-05T20:28:08.556Z,100.00
2023-05-05T20:30:41.534Z,100.00
2023-05-05T20:33:14.553Z,100.00
2023-05-05T20:35:48.259Z,100.00
2023-05-05T20:38:21.290Z,100.00
2023-05-05T20:40:55.746Z,100.00
2023-05-05T20:43:28.718Z,100.00
2023-05-05T20:46:02.660Z,100.00
2023-05-05T20:48:36.878Z,100.00
2023-05-05T20:51:11.330Z,100.00
2023-05-05T20:53:44.295Z,100.00
2023-05-05T20:56:18.666Z,100.00
2023-05-05T20:58:51.675Z,100.00
2023-05-05T21:01:24.735Z,100.00
2023-05-05T21:03:57.910Z,100.00
2023-05-05T21:06:30.897Z,100.00
2023-05-05T21:09:03.980Z,100.00
2023-05-05T21:11:38.328Z,100.00
2023-05-05T21:14:11.369Z,100.00
2023-05-05T21:16:44.448Z,100.00
2023-05-05T21:19:17.452Z,100.00
2023-05-05T21:21:51.097Z,100.00
2023-05-05T21:24:24.079Z,100.00
2023-05-05T21:26:58.401Z,100.00
2023-05-05T21:29:34.238Z,100.00
2023-05-05T21:32:09.768Z,100.00
2023-05-05T21:34:42.768Z,100.00
2023-05-05T21:37:15.729Z,100.00
2023-05-05T21:39:49.498Z,100.00
2023-05-05T21:42:23.858Z,100.00
2023-05-05T21:44:56.914Z,100.00
2023-05-05T21:47:29.925Z,100.00
2023-05-05T21:50:03.018Z,100.00
2023-05-05T21:52:36.104Z,100.00
2023-05-05T21:55:10.950Z,100.00
2023-05-05T21:57:45.395Z,100.00
2023-05-05T22:00:18.647Z,100.00
2023-05-05T22:02:51.655Z,100.00
2023-05-05T22:05:24.701Z,100.00
2023-05-05T22:07:57.807Z,100.00
2023-05-05T22:10:30.967Z,100.00
2023-05-05T22:13:05.408Z,100.00
2023-05-05T22:15:46.649Z,100.00
2023-05-05T22:18:19.990Z,100.00
2023-05-05T22:20:53.044Z,100.00
2023-05-05T22:23:26.169Z,100.00
2023-05-05T22:25:59.154Z,100.00
2023-05-05T22:28:33.514Z,100.00
2023-05-05T22:31:06.677Z,100.00
2023-05-05T22:33:39.682Z,100.00
2023-05-05T22:36:13.114Z,100.00
2023-05-05T22:38:46.160Z,100.00
2023-05-05T22:41:19.134Z,100.00
2023-05-05T22:43:53.934Z,100.00
2023-05-05T22:46:26.916Z,100.00
2023-05-05T22:49:00.003Z,100.00
2023-05-05T22:51:33.055Z,100.00
2023-05-05T22:54:06.276Z,100.00
2023-05-05T22:56:39.573Z,100.00
2023-05-05T22:59:13.907Z,100.00
2023-05-05T23:01:47.354Z,100.00
2023-05-05T23:04:20.393Z,100.00
2023-05-05T23:06:53.351Z,100.00
2023-05-05T23:09:26.290Z,100.00
2023-05-05T23:11:59.229Z,100.00
2023-05-05T23:14:33.595Z,100.00
2023-05-05T23:17:06.894Z,100.00
2023-05-05T23:19:39.863Z,100.00
2023-05-05T23:22:12.830Z,100.00
2023-05-05T23:24:45.795Z,100.00
2023-05-05T23:27:18.744Z,100.00
2023-05-05T23:29:53.045Z,100.00
2023-05-05T23:32:26.081Z,100.00
2023-05-05T23:34:59.034Z,100.00
2023-05-05T23:37:31.988Z,100.00
2023-05-05T23:40:06.789Z,100.00
2023-05-05T23:42:39.762Z,100.00
2023-05-05T23:45:14.082Z,100.00
2023-05-05T23:47:47.051Z,100.00
2023-05-05T23:50:20.137Z,100.00
2023-05-05T23:52:53.128Z,100.00
2023-05-05T23:55:26.496Z,100.00
2023-05-05T23:57:59.448Z,100.00
